Time;durP1;ratioP1;P1;durP2;ratioP2;P2;SDS_P1;SDS_P2;PMS_P1;PMS_P2;Temp;Humidity;BMP_temperature;BMP_pressure;BME280_temperature;BME280_humidity;BME280_pressure;Samples;Min_cycle;Max_cycle;Signal;HPM_P1;HPM_P2
2023/10/21 03:31:21;;;;;;;0.80;0.60;;;11.90;99.90;;;;;;5678721;23;20629;-67
2023/10/21 03:33:48;;;;;;;0.90;0.75;;;11.90;99.90;;;;;;4974925;28;20221;-68
2023/10/21 03:36:14;;;;;;;0.90;0.70;;;11.80;99.90;;;;;;4974673;28;20245;-68
2023/10/21 03:38:42;;;;;;;0.80;0.70;;;11.80;99.90;;;;;;4975476;28;20674;-68
2023/10/21 03:41:10;;;;;;;1.48;0.90;;;11.80;99.90;;;;;;4968313;28;20230;-68
2023/10/21 03:43:37;;;;;;;1.00;0.80;;;11.80;99.90;;;;;;4956248;28;20217;-67
2023/10/21 03:46:05;;;;;;;0.80;0.60;;;11.80;99.90;;;;;;4955762;28;20215;-68
2023/10/21 03:48:34;;;;;;;1.05;0.70;;;11.80;99.90;;;;;;4956524;28;20206;-69
2023/10/21 03:51:05;;;;;;;0.85;0.73;;;11.80;99.90;;;;;;4952927;28;20228;-68
2023/10/21 03:53:32;;;;;;;0.90;0.80;;;11.80;99.90;;;;;;4952418;28;20201;-68
2023/10/21 03:56:00;;;;;;;1.65;0.70;;;11.70;99.90;;;;;;4955536;28;20677;-68
2023/10/21 03:58:27;;;;;;;0.70;0.60;;;11.70;99.90;;;;;;4951793;28;20210;-68
2023/10/21 04:00:56;;;;;;;1.33;1.00;;;11.70;99.90;;;;;;4958815;28;20253;-68
2023/10/21 04:03:23;;;;;;;1.00;0.80;;;11.70;99.90;;;;;;4956095;28;20675;-67
2023/10/21 04:05:51;;;;;;;1.52;1.00;;;11.60;99.90;;;;;;4955137;28;20213;-68
2023/10/21 04:08:18;;;;;;;1.23;0.90;;;11.60;99.90;;;;;;4955997;28;20214;-68
2023/10/21 04:10:45;;;;;;;1.20;1.00;;;11.60;99.90;;;;;;4955651;28;20599;-68
2023/10/21 04:13:13;;;;;;;0.93;0.82;;;11.60;99.90;;;;;;4955901;28;20225;-67
2023/10/21 04:15:40;;;;;;;0.80;0.75;;;11.70;99.90;;;;;;4955132;28;20221;-68
2023/10/21 04:18:07;;;;;;;1.00;0.70;;;11.70;99.90;;;;;;4955678;28;20211;-67
2023/10/21 04:20:33;;;;;;;0.90;0.80;;;11.80;99.90;;;;;;4955653;28;20230;-68
2023/10/21 04:23:02;;;;;;;1.00;0.90;;;11.80;99.90;;;;;;4955415;28;20259;-68
2023/10/21 04:25:29;;;;;;;1.42;0.90;;;11.80;99.90;;;;;;4950705;28;20211;-67
2023/10/21 04:27:56;;;;;;;0.80;0.70;;;11.90;99.90;;;;;;4955194;28;20644;-68
2023/10/21 04:30:23;;;;;;;2.78;0.88;;;11.90;99.90;;;;;;4954772;28;20235;-68
2023/10/21 04:32:50;;;;;;;1.30;0.90;;;12.00;99.90;;;;;;4955160;28;20210;-68
2023/10/21 04:35:17;;;;;;;1.40;0.90;;;12.00;99.90;;;;;;4954824;28;20208;-68
2023/10/21 04:37:44;;;;;;;1.65;0.77;;;12.00;99.90;;;;;;4955206;28;20653;-68
2023/10/21 04:40:13;;;;;;;0.80;0.70;;;12.00;99.90;;;;;;4955279;28;20215;-68
2023/10/21 04:42:40;;;;;;;0.90;0.80;;;12.00;99.90;;;;;;4955474;28;20670;-68
2023/10/21 04:45:08;;;;;;;0.80;0.65;;;12.00;99.90;;;;;;4954605;28;20211;-68
2023/10/21 04:47:34;;;;;;;0.80;0.70;;;12.00;99.90;;;;;;4955346;28;20587;-68
2023/10/21 04:50:01;;;;;;;2.05;0.75;;;12.00;99.90;;;;;;4954853;28;20214;-67
2023/10/21 04:52:28;;;;;;;1.80;0.75;;;12.10;99.90;;;;;;4955150;28;20237;-67
2023/10/21 04:54:54;;;;;;;0.90;0.80;;;12.10;99.90;;;;;;4954248;28;20218;-67
2023/10/21 04:57:22;;;;;;;1.20;0.90;;;12.20;99.90;;;;;;4955219;28;20234;-68
2023/10/21 04:59:49;;;;;;;1.30;0.90;;;12.20;99.90;;;;;;4954815;28;20204;-68
2023/10/21 05:02:16;;;;;;;1.05;0.70;;;12.20;99.90;;;;;;4954761;28;20696;-68
2023/10/21 05:04:43;;;;;;;0.90;0.70;;;12.30;99.90;;;;;;4956687;28;20203;-67
2023/10/21 05:07:09;;;;;;;0.80;0.70;;;12.30;99.90;;;;;;4954862;28;20201;-68
2023/10/21 05:09:36;;;;;;;0.90;0.70;;;12.40;99.90;;;;;;4954899;28;20219;-68
2023/10/21 05:12:03;;;;;;;0.80;0.70;;;12.40;99.90;;;;;;4954411;28;20650;-68
2023/10/21 05:14:32;;;;;;;0.80;0.70;;;12.40;99.90;;;;;;4954672;28;20262;-68
2023/10/21 05:16:59;;;;;;;0.77;0.63;;;12.50;99.90;;;;;;4954199;28;20238;-68
2023/10/21 05:19:25;;;;;;;1.23;1.13;;;12.50;99.90;;;;;;4954781;28;20205;-68
2023/10/21 05:21:52;;;;;;;0.95;0.82;;;12.50;99.90;;;;;;4954139;28;20231;-68
2023/10/21 05:24:19;;;;;;;1.00;0.80;;;12.50;99.90;;;;;;4954337;28;20584;-68
2023/10/21 05:26:45;;;;;;;0.80;0.70;;;12.60;99.90;;;;;;4954103;28;20215;-69
2023/10/21 05:29:12;;;;;;;0.80;0.70;;;12.60;99.90;;;;;;4954691;28;20215;-68
2023/10/21 05:31:41;;;;;;;0.85;0.65;;;12.60;99.90;;;;;;4954431;28;20577;-68
2023/10/21 05:34:08;;;;;;;1.13;0.80;;;12.50;99.90;;;;;;4953805;28;20211;-67
2023/10/21 05:36:35;;;;;;;0.77;0.68;;;12.50;99.90;;;;;;4954046;28;20211;-69
2023/10/21 05:39:03;;;;;;;1.67;0.90;;;12.50;99.90;;;;;;4953820;28;20573;-68
2023/10/21 05:41:30;;;;;;;2.75;1.10;;;12.50;99.90;;;;;;4953987;28;20663;-68
2023/10/21 05:43:57;;;;;;;0.80;0.70;;;12.50;99.90;;;;;;4953833;28;20210;-68
2023/10/21 05:46:23;;;;;;;1.75;0.75;;;12.40;99.90;;;;;;4953714;28;20211;-68
2023/10/21 05:48:52;;;;;;;0.70;0.60;;;12.40;99.90;;;;;;4951862;28;20208;-68
2023/10/21 05:51:18;;;;;;;0.80;0.73;;;12.50;99.90;;;;;;4953846;28;20222;-68
2023/10/21 05:53:45;;;;;;;0.80;0.70;;;12.40;99.90;;;;;;4953754;28;20951;-67
2023/10/21 05:56:13;;;;;;;0.80;0.60;;;12.40;99.90;;;;;;4953288;28;20580;-68
2023/10/21 05:58:40;;;;;;;1.45;0.88;;;12.40;99.90;;;;;;4953038;28;20213;-68
2023/10/21 06:01:09;;;;;;;1.20;0.90;;;12.40;99.90;;;;;;4953393;28;20692;-68
2023/10/21 06:03:36;;;;;;;0.80;0.70;;;12.40;99.90;;;;;;4953884;28;20210;-68
2023/10/21 06:06:05;;;;;;;0.80;0.70;;;12.40;99.90;;;;;;4953026;28;20242;-68
2023/10/21 06:08:31;;;;;;;1.27;1.00;;;12.40;99.90;;;;;;4953892;28;20270;-68
2023/10/21 06:10:58;;;;;;;1.10;0.98;;;12.40;99.90;;;;;;4952859;28;20463;-68
2023/10/21 06:13:25;;;;;;;1.27;0.80;;;12.40;99.90;;;;;;4953882;28;20210;-67
2023/10/21 06:15:52;;;;;;;1.00;0.90;;;12.50;99.90;;;;;;4953011;28;20210;-68
2023/10/21 06:18:19;;;;;;;0.80;0.70;;;12.60;99.90;;;;;;4953645;28;20231;-67
2023/10/21 06:20:48;;;;;;;1.00;0.80;;;12.60;99.90;;;;;;4953542;28;20724;-67
2023/10/21 06:23:16;;;;;;;0.80;0.70;;;12.50;99.90;;;;;;4951843;28;20213;-67
2023/10/21 06:25:44;;;;;;;1.20;0.90;;;12.60;99.90;;;;;;4953078;28;20282;-67
2023/10/21 06:28:11;;;;;;;1.17;1.05;;;12.50;99.90;;;;;;4953161;28;20294;-67
2023/10/21 06:30:38;;;;;;;1.00;0.73;;;12.50;99.90;;;;;;4953335;28;20278;-67
2023/10/21 06:33:05;;;;;;;0.95;0.75;;;12.50;99.90;;;;;;4953163;28;20629;-68
2023/10/21 06:35:32;;;;;;;1.10;0.80;;;12.50;99.90;;;;;;4952822;28;20206;-68
2023/10/21 06:37:59;;;;;;;1.08;0.80;;;12.50;99.90;;;;;;4953017;28;20223;-68
2023/10/21 06:40:27;;;;;;;0.90;0.80;;;12.40;99.90;;;;;;4953184;28;20207;-68
2023/10/21 06:42:55;;;;;;;0.80;0.70;;;12.40;99.90;;;;;;4953035;28;20223;-68
2023/10/21 06:45:22;;;;;;;0.90;0.80;;;12.30;99.90;;;;;;4952489;28;20683;-68
2023/10/21 06:47:49;;;;;;;1.63;0.77;;;12.40;99.90;;;;;;4953129;28;20497;-68
2023/10/21 06:50:16;;;;;;;1.02;0.90;;;12.30;99.90;;;;;;4952622;28;20207;-68
2023/10/21 06:52:43;;;;;;;1.58;0.80;;;12.20;99.90;;;;;;4952776;28;20207;-68
2023/10/21 06:55:10;;;;;;;0.98;0.80;;;12.20;99.90;;;;;;4952585;28;20212;-69
2023/10/21 06:57:38;;;;;;;1.10;0.70;;;12.20;99.90;;;;;;4953102;28;20238;-69
2023/10/21 07:00:06;;;;;;;0.80;0.70;;;12.20;99.90;;;;;;4952784;28;20214;-68
2023/10/21 07:02:33;;;;;;;0.90;0.80;;;12.20;99.90;;;;;;4952923;28;20341;-68
2023/10/21 07:05:00;;;;;;;0.77;0.65;;;12.30;99.90;;;;;;4952165;28;20235;-68
2023/10/21 07:07:26;;;;;;;2.58;0.80;;;12.40;99.90;;;;;;4952919;28;20207;-69
2023/10/21 07:09:53;;;;;;;1.77;0.77;;;12.60;99.90;;;;;;4952964;28;20583;-69
2023/10/21 07:12:20;;;;;;;0.80;0.70;;;12.60;99.90;;;;;;4951904;28;20230;-68
2023/10/21 07:14:49;;;;;;;1.20;0.90;;;12.80;99.90;;;;;;4952461;28;20294;-69
2023/10/21 07:17:16;;;;;;;0.90;0.80;;;13.10;99.90;;;;;;4952246;28;20672;-70
2023/10/21 07:19:43;;;;;;;1.00;0.70;;;13.40;99.90;;;;;;4952970;28;20583;-69
2023/10/21 07:22:09;;;;;;;0.90;0.80;;;13.60;99.90;;;;;;4952320;28;20499;-70
2023/10/21 07:24:36;;;;;;;0.90;0.70;;;13.90;99.90;;;;;;4952635;28;20494;-70
2023/10/21 07:27:03;;;;;;;1.20;0.70;;;14.10;99.90;;;;;;4952419;28;20495;-69
2023/10/21 07:29:31;;;;;;;4.13;0.90;;;14.20;99.90;;;;;;4952862;28;20478;-69
2023/10/21 07:31:59;;;;;;;0.90;0.80;;;14.40;99.90;;;;;;4952355;28;20486;-70
2023/10/21 07:34:26;;;;;;;0.97;0.87;;;14.60;99.90;;;;;;4952574;28;20495;-69
2023/10/21 07:36:53;;;;;;;0.90;0.80;;;14.70;99.90;;;;;;4953196;28;20464;-70
2023/10/21 07:39:19;;;;;;;0.80;0.70;;;14.80;99.90;;;;;;4952340;28;20492;-69
2023/10/21 07:41:46;;;;;;;0.90;0.70;;;14.90;99.90;;;;;;4952745;28;20869;-69
2023/10/21 07:44:13;;;;;;;0.80;0.70;;;15.10;99.90;;;;;;4952193;28;20471;-69
2023/10/21 07:46:39;;;;;;;1.03;0.77;;;15.30;99.90;;;;;;4952457;28;20472;-69
2023/10/21 07:49:08;;;;;;;0.80;0.70;;;15.50;99.90;;;;;;4952386;28;20526;-69
2023/10/21 07:51:34;;;;;;;0.80;0.60;;;15.60;99.90;;;;;;4952615;28;20484;-69
2023/10/21 07:54:01;;;;;;;3.40;1.03;;;15.80;99.90;;;;;;4952283;28;20460;-69
2023/10/21 07:56:28;;;;;;;1.30;0.90;;;15.90;99.90;;;;;;4944690;28;20477;-69
2023/10/21 07:58:54;;;;;;;0.80;0.60;;;16.10;99.90;;;;;;4952450;28;20955;-69
2023/10/21 08:01:21;;;;;;;1.00;0.70;;;16.30;99.90;;;;;;4951925;28;20489;-70
2023/10/21 08:03:48;;;;;;;1.13;0.93;;;16.60;99.90;;;;;;4954341;28;20521;-70
2023/10/21 08:06:16;;;;;;;1.60;0.90;;;16.80;99.90;;;;;;4955313;28;20465;-70
2023/10/21 08:08:43;;;;;;;1.00;0.80;;;16.90;99.90;;;;;;4956218;28;20465;-70
2023/10/21 08:11:10;;;;;;;0.90;0.70;;;17.10;99.90;;;;;;4955823;28;20526;-71
2023/10/21 08:13:37;;;;;;;1.00;0.80;;;17.30;99.90;;;;;;4956054;28;20477;-68
2023/10/21 08:16:04;;;;;;;1.67;0.87;;;17.50;99.90;;;;;;4955118;28;20847;-68
2023/10/21 08:18:30;;;;;;;0.90;0.70;;;17.70;99.90;;;;;;4955940;28;20471;-67
2023/10/21 08:20:57;;;;;;;1.03;0.80;;;17.70;99.90;;;;;;4955776;28;20494;-68
2023/10/21 08:23:27;;;;;;;2.40;1.00;;;17.70;99.90;;;;;;4955212;28;20489;-67
2023/10/21 08:25:54;;;;;;;0.90;0.70;;;17.90;99.90;;;;;;4955343;28;20587;-67
2023/10/21 08:28:20;;;;;;;2.47;0.87;;;18.00;99.90;;;;;;4955225;28;20477;-67
2023/10/21 08:30:48;;;;;;;1.10;0.70;;;18.20;99.90;;;;;;4955428;28;21027;-67
2023/10/21 08:33:15;;;;;;;0.90;0.80;;;18.40;99.90;;;;;;4955205;28;20471;-68
2023/10/21 08:35:41;;;;;;;1.00;0.80;;;18.60;99.90;;;;;;4955036;28;20475;-68
2023/10/21 08:38:08;;;;;;;1.57;0.80;;;18.60;99.90;;;;;;4954995;28;20972;-68
2023/10/21 08:40:38;;;;;;;0.90;0.70;;;18.50;99.90;;;;;;4955833;28;20486;-69
2023/10/21 08:43:05;;;;;;;0.90;0.70;;;18.40;99.90;;;;;;4955219;28;20494;-68
2023/10/21 08:45:32;;;;;;;1.30;0.70;;;18.40;99.90;;;;;;4954784;28;20840;-68
2023/10/21 08:48:00;;;;;;;0.80;0.70;;;18.20;99.90;;;;;;4955293;28;20563;-68
2023/10/21 08:50:27;;;;;;;0.80;0.60;;;18.10;99.90;;;;;;4954920;28;20478;-68
2023/10/21 08:52:56;;;;;;;1.00;0.80;;;17.90;99.90;;;;;;4955268;28;20458;-67
2023/10/21 08:55:23;;;;;;;0.97;0.70;;;17.50;99.90;;;;;;4954249;28;20493;-69
2023/10/21 08:57:51;;;;;;;1.27;0.70;;;17.30;99.90;;;;;;4954984;28;20472;-65
2023/10/21 09:00:18;;;;;;;0.80;0.70;;;17.10;99.90;;;;;;4954458;28;20471;-65
2023/10/21 09:02:45;;;;;;;1.20;0.90;;;17.00;99.90;;;;;;4954751;28;20485;-66
2023/10/21 09:05:13;;;;;;;1.10;0.90;;;16.80;99.90;;;;;;4954271;28;20870;-65
2023/10/21 09:07:46;;;;;;;2.70;1.17;;;16.50;99.90;;;;;;4955085;28;20461;-65
2023/10/21 09:10:13;;;;;;;1.00;0.87;;;16.40;99.90;;;;;;4954449;28;20513;-65
2023/10/21 09:12:41;;;;;;;1.00;0.70;;;16.20;99.90;;;;;;4954899;28;20835;-65
2023/10/21 09:15:11;;;;;;;1.00;0.80;;;16.30;99.90;;;;;;4960976;28;20468;-65
2023/10/21 09:17:39;;;;;;;0.80;0.60;;;16.30;99.90;;;;;;4950321;28;20464;-66
2023/10/21 09:20:09;;;;;;;1.10;0.90;;;16.30;99.90;;;;;;4954204;28;20537;-66
2023/10/21 09:22:36;;;;;;;0.87;0.80;;;16.40;99.90;;;;;;4958386;28;20881;-69
2023/10/21 09:25:16;;;;;;;1.33;0.90;;;16.60;99.90;;;;;;4956813;28;20466;-68
2023/10/21 09:27:44;;;;;;;2.80;0.90;;;16.60;99.90;;;;;;4954652;28;20902;-67
2023/10/21 09:30:19;;;;;;;1.20;0.90;;;16.70;99.90;;;;;;4954153;28;20488;-68
2023/10/21 09:32:47;;;;;;;1.97;1.10;;;17.00;99.90;;;;;;4953114;28;20472;-67
2023/10/21 09:35:16;;;;;;;1.63;0.73;;;17.40;99.90;;;;;;4955341;28;20509;-68
2023/10/21 09:37:44;;;;;;;2.30;1.27;;;17.80;99.90;;;;;;4953704;28;21034;-67
2023/10/21 09:40:12;;;;;;;2.60;0.90;;;18.20;99.90;;;;;;4953210;28;20471;-67
2023/10/21 09:42:41;;;;;;;1.03;0.80;;;18.40;99.90;;;;;;4953378;28;20712;-67
2023/10/21 09:45:10;;;;;;;0.90;0.70;;;18.30;99.90;;;;;;4952912;28;20460;-67
2023/10/21 09:47:41;;;;;;;0.90;0.80;;;18.10;99.90;;;;;;4953412;28;20475;-67
2023/10/21 09:50:11;;;;;;;1.77;0.83;;;17.90;99.90;;;;;;4952149;28;20464;-67
2023/10/21 09:52:44;;;;;;;1.10;0.90;;;17.70;99.90;;;;;;4953434;28;20484;-65
2023/10/21 09:55:12;;;;;;;0.80;0.70;;;17.60;99.90;;;;;;4951650;28;20516;-65
2023/10/21 09:57:40;;;;;;;1.23;0.97;;;17.40;99.90;;;;;;4951988;28;20485;-66
2023/10/21 10:00:09;;;;;;;0.83;0.67;;;17.30;99.90;;;;;;4953427;28;20489;-66
2023/10/21 10:02:37;;;;;;;0.93;0.70;;;17.30;99.90;;;;;;4953134;28;20925;-66
2023/10/21 10:05:07;;;;;;;2.10;1.00;;;17.40;99.90;;;;;;4953053;28;20499;-65
2023/10/21 10:07:35;;;;;;;1.23;0.83;;;17.70;99.90;;;;;;4952894;28;20461;-66
2023/10/21 10:10:05;;;;;;;1.80;0.80;;;18.00;99.90;;;;;;4953501;28;20486;-65
2023/10/21 10:12:37;;;;;;;1.17;0.80;;;18.40;99.90;;;;;;4952989;28;20485;-66
2023/10/21 10:15:34;;;;;;;1.03;0.80;;;18.80;99.90;;;;;;4945724;28;20495;-65
2023/10/21 10:18:04;;;;;;;1.73;0.73;;;19.30;99.90;;;;;;4950434;28;20502;-66
2023/10/21 10:20:32;;;;;;;2.23;0.97;;;19.50;99.90;;;;;;4952081;28;20468;-65
2023/10/21 10:23:01;;;;;;;1.37;0.80;;;19.60;99.90;;;;;;4952868;28;20494;-65
2023/10/21 10:25:32;;;;;;;1.97;0.80;;;19.70;99.90;;;;;;4951017;28;20467;-66
2023/10/21 10:28:00;;;;;;;0.90;0.80;;;19.90;99.90;;;;;;4952755;28;20975;-66
2023/10/21 10:30:31;;;;;;;1.93;0.93;;;19.90;99.90;;;;;;4952455;28;20496;-65
2023/10/21 10:33:01;;;;;;;1.20;0.70;;;19.90;99.90;;;;;;4953341;28;20459;-65
2023/10/21 10:35:34;;;;;;;0.97;0.77;;;19.50;99.90;;;;;;4950409;28;20460;-65
2023/10/21 10:38:02;;;;;;;1.00;0.90;;;18.90;99.90;;;;;;4952911;28;20514;-65
2023/10/21 10:40:37;;;;;;;1.10;0.80;;;18.50;99.90;;;;;;4951329;28;20466;-65
2023/10/21 10:43:04;;;;;;;1.63;0.80;;;18.10;99.90;;;;;;4952570;28;20494;-65
2023/10/21 10:45:34;;;;;;;1.47;0.90;;;17.80;99.90;;;;;;4951860;28;20877;-65
2023/10/21 10:48:03;;;;;;;1.40;0.70;;;17.50;99.90;;;;;;4953006;28;20471;-65
2023/10/21 10:50:36;;;;;;;0.90;0.80;;;17.50;99.90;;;;;;4951097;28;20513;-66
2023/10/21 10:53:13;;;;;;;2.80;1.00;;;17.40;99.90;;;;;;4952992;28;20472;-65
2023/10/21 10:55:42;;;;;;;0.80;0.70;;;17.30;99.90;;;;;;4952590;28;20556;-65
2023/10/21 10:58:10;;;;;;;1.33;0.80;;;17.10;99.90;;;;;;4952807;28;20468;-65
2023/10/21 11:00:39;;;;;;;1.77;0.80;;;17.00;99.90;;;;;;4952497;28;20552;-67
2023/10/21 11:03:06;;;;;;;0.90;0.70;;;16.90;99.90;;;;;;4952483;28;21026;-68
2023/10/21 11:05:37;;;;;;;1.10;0.80;;;16.80;99.90;;;;;;4951492;28;20473;-68
2023/10/21 11:08:07;;;;;;;1.97;1.00;;;16.80;99.90;;;;;;4960396;28;20473;-68
2023/10/21 11:10:34;;;;;;;2.00;1.00;;;16.70;99.90;;;;;;4952244;28;20957;-68
2023/10/21 11:13:03;;;;;;;1.00;0.90;;;16.70;99.90;;;;;;4952566;28;20462;-68
2023/10/21 11:15:30;;;;;;;1.10;0.90;;;16.70;99.90;;;;;;4950211;28;20928;-67
2023/10/21 11:17:56;;;;;;;1.47;0.80;;;16.70;99.90;;;;;;4952826;28;20541;-68
2023/10/21 11:20:25;;;;;;;2.10;1.07;;;16.50;99.90;;;;;;4951905;28;20464;-67
2023/10/21 11:22:55;;;;;;;1.03;0.87;;;16.40;99.90;;;;;;4952561;28;20548;-67
2023/10/21 11:25:24;;;;;;;0.90;0.80;;;16.40;99.90;;;;;;4951603;28;20898;-67
2023/10/21 11:27:50;;;;;;;1.73;1.63;;;16.30;99.90;;;;;;4952262;28;20543;-67
2023/10/21 11:30:17;;;;;;;1.33;0.70;;;16.30;99.90;;;;;;4952148;28;20478;-67
2023/10/21 11:32:45;;;;;;;0.80;0.70;;;16.30;99.90;;;;;;4946636;28;20473;-68
2023/10/21 11:35:14;;;;;;;1.00;0.90;;;16.30;99.90;;;;;;4951482;28;21028;-68
2023/10/21 11:37:40;;;;;;;1.10;0.77;;;16.20;99.90;;;;;;4952159;28;20968;-68
2023/10/21 11:40:11;;;;;;;1.10;0.70;;;16.10;99.90;;;;;;4955927;28;20837;-68
2023/10/21 11:42:39;;;;;;;2.03;0.90;;;16.10;99.90;;;;;;4956287;28;21023;-67
2023/10/21 11:45:09;;;;;;;1.43;1.00;;;16.00;99.90;;;;;;4955925;28;20913;-68
2023/10/21 11:47:36;;;;;;;3.47;0.80;;;16.10;99.90;;;;;;4956019;28;20555;-68
2023/10/21 11:50:03;;;;;;;1.53;0.90;;;16.10;99.90;;;;;;4956263;28;20558;-68
2023/10/21 11:52:32;;;;;;;2.30;0.80;;;16.10;99.90;;;;;;4955832;28;20988;-68
2023/10/21 12:20:45;;;;;;;1.57;1.00;;;17.20;99.90;;;;;;4955578;28;20880;-68
2023/10/21 12:39:56;;;;;;;1.53;1.10;;;17.10;99.90;;;;;;4955471;28;20492;-66
2023/10/21 12:42:26;;;;;;;2.20;0.90;;;16.90;99.90;;;;;;4955516;28;20532;-68
2023/10/21 12:44:54;;;;;;;0.97;0.87;;;16.80;99.90;;;;;;4954549;28;20556;-68
2023/10/21 12:47:22;;;;;;;0.80;0.70;;;16.60;99.90;;;;;;4955492;28;20894;-68
2023/10/21 12:49:50;;;;;;;0.90;0.70;;;16.40;99.90;;;;;;4953757;28;20469;-68
2023/10/21 12:52:17;;;;;;;1.10;0.70;;;16.30;99.90;;;;;;4954985;28;20480;-68
2023/10/21 12:54:44;;;;;;;0.80;0.70;;;16.30;99.90;;;;;;4954223;28;20461;-68
2023/10/21 12:57:12;;;;;;;1.83;1.03;;;16.20;99.90;;;;;;4955349;28;20464;-68
2023/10/21 12:59:39;;;;;;;3.63;0.80;;;16.10;99.90;;;;;;4954239;28;20839;-68
2023/10/21 13:02:07;;;;;;;2.17;0.87;;;16.10;99.90;;;;;;4954809;28;20484;-68
2023/10/21 13:04:36;;;;;;;1.13;0.90;;;16.10;99.90;;;;;;4953804;28;20622;-68
2023/10/21 13:07:04;;;;;;;0.90;0.80;;;16.20;99.90;;;;;;4954507;28;20823;-67
2023/10/21 13:09:31;;;;;;;1.00;0.90;;;16.40;99.90;;;;;;4954393;28;20474;-68
2023/10/21 13:11:59;;;;;;;1.30;0.80;;;16.80;99.90;;;;;;4954526;28;20496;-68
2023/10/21 13:14:27;;;;;;;3.50;0.90;;;17.00;99.90;;;;;;4954419;28;20564;-67
2023/10/21 13:16:54;;;;;;;0.80;0.70;;;16.90;99.90;;;;;;4953880;28;20468;-67
2023/10/21 13:19:21;;;;;;;1.83;0.83;;;16.90;99.90;;;;;;4954340;28;20981;-67
2023/10/21 13:21:53;;;;;;;0.83;0.70;;;17.00;99.90;;;;;;4953213;28;20485;-68
2023/10/21 13:24:20;;;;;;;2.13;0.87;;;17.20;99.90;;;;;;4953668;28;21034;-67
2023/10/21 13:26:47;;;;;;;1.60;1.33;;;17.20;99.90;;;;;;4953722;28;20535;-67
2023/10/21 13:29:14;;;;;;;0.90;0.80;;;17.20;99.90;;;;;;4953989;28;20508;-67
2023/10/21 13:31:41;;;;;;;1.40;0.80;;;17.30;99.90;;;;;;4953577;28;20495;-68
2023/10/21 13:34:08;;;;;;;3.33;1.13;;;17.70;99.90;;;;;;4954148;28;20462;-67
2023/10/21 13:36:34;;;;;;;1.00;0.70;;;17.70;99.90;;;;;;4953459;28;20978;-67
2023/10/21 13:39:15;;;;;;;1.20;1.00;;;17.90;99.90;;;;;;4954274;28;20469;-68
2023/10/21 13:41:42;;;;;;;0.80;0.70;;;18.10;99.90;;;;;;4951872;28;20848;-68
2023/10/21 13:44:08;;;;;;;0.80;0.70;;;18.40;99.90;;;;;;4953876;28;20491;-68
2023/10/21 13:46:35;;;;;;;0.80;0.70;;;18.70;99.90;;;;;;4950249;28;20487;-66
2023/10/21 13:49:03;;;;;;;2.53;0.80;;;18.60;99.90;;;;;;4953116;28;20466;-65
2023/10/21 13:51:30;;;;;;;1.00;0.90;;;18.50;99.90;;;;;;4953843;28;20494;-66
2023/10/21 13:53:56;;;;;;;1.40;0.80;;;18.30;99.90;;;;;;4952722;28;20469;-66
2023/10/21 13:56:25;;;;;;;1.27;1.10;;;18.00;99.90;;;;;;4948433;28;20478;-67
2023/10/21 13:58:53;;;;;;;1.20;0.80;;;17.80;99.90;;;;;;4953429;28;20958;-66
2023/10/21 14:01:22;;;;;;;1.50;0.87;;;17.80;99.90;;;;;;4953223;28;20526;-66
2023/10/21 14:03:48;;;;;;;1.30;0.90;;;17.80;99.90;;;;;;4953019;28;20496;-66
2023/10/21 14:06:19;;;;;;;1.53;0.70;;;17.70;99.90;;;;;;4952870;28;20464;-66
2023/10/21 14:08:48;;;;;;;1.10;0.87;;;17.60;99.90;;;;;;4953022;28;20473;-66
2023/10/21 14:11:15;;;;;;;0.90;0.80;;;17.60;99.90;;;;;;4952828;28;20989;-66
2023/10/21 14:13:46;;;;;;;0.90;0.80;;;17.60;99.90;;;;;;4952868;28;20971;-66
2023/10/21 14:16:12;;;;;;;1.10;0.80;;;17.50;99.90;;;;;;4952356;28;20468;-66
2023/10/21 14:18:41;;;;;;;0.80;0.73;;;17.40;99.90;;;;;;4952204;28;20474;-65
2023/10/21 14:21:10;;;;;;;1.10;0.80;;;17.10;99.90;;;;;;4953016;28;20534;-66
2023/10/21 14:23:37;;;;;;;1.07;0.90;;;17.00;99.90;;;;;;4952631;28;20490;-65
2023/10/21 14:26:03;;;;;;;0.83;0.73;;;16.80;99.90;;;;;;4952296;28;20850;-65
2023/10/21 14:28:30;;;;;;;1.00;0.90;;;16.70;99.90;;;;;;4952746;28;20476;-65
2023/10/21 14:31:00;;;;;;;1.47;0.90;;;16.70;99.90;;;;;;4952712;28;21270;-65
2023/10/21 14:33:28;;;;;;;0.97;0.77;;;16.70;99.90;;;;;;4952672;28;20576;-66
2023/10/21 14:35:56;;;;;;;1.20;0.77;;;16.90;99.90;;;;;;4951776;28;20924;-66
2023/10/21 14:38:26;;;;;;;1.83;1.07;;;17.20;99.90;;;;;;4952324;28;20469;-65
2023/10/21 14:40:53;;;;;;;1.00;0.80;;;17.60;99.90;;;;;;4952246;28;20908;-66
2023/10/21 14:43:20;;;;;;;0.90;0.80;;;17.70;99.90;;;;;;4952388;28;20483;-66
2023/10/21 14:45:49;;;;;;;1.10;0.87;;;17.70;99.90;;;;;;4951951;28;20837;-66
2023/10/21 14:48:19;;;;;;;0.90;0.77;;;17.50;99.90;;;;;;4952588;28;20467;-66
2023/10/21 14:50:47;;;;;;;1.37;0.90;;;17.40;99.90;;;;;;4952320;28;20500;-66
2023/10/21 14:53:14;;;;;;;2.20;1.33;;;17.30;99.90;;;;;;4952042;28;20470;-66
2023/10/21 14:55:43;;;;;;;1.00;0.77;;;17.20;99.90;;;;;;4948024;28;20472;-65
2023/10/21 14:58:11;;;;;;;1.77;0.90;;;17.10;99.90;;;;;;4948383;28;20495;-66
2023/10/21 15:00:38;;;;;;;1.20;0.97;;;17.00;99.90;;;;;;4950551;28;20529;-66
2023/10/21 15:03:06;;;;;;;1.00;0.80;;;17.00;99.90;;;;;;4951796;28;20465;-66
2023/10/21 15:05:34;;;;;;;1.23;0.80;;;16.90;99.90;;;;;;4951075;28;20541;-67
2023/10/21 15:08:02;;;;;;;1.30;0.80;;;16.80;99.90;;;;;;4951348;28;20502;-66
2023/10/21 15:10:29;;;;;;;1.00;0.87;;;16.70;99.90;;;;;;4951751;28;20505;-69
2023/10/21 15:12:56;;;;;;;0.87;0.70;;;16.60;99.90;;;;;;4946498;28;20477;-67
2023/10/21 15:15:25;;;;;;;1.40;0.83;;;16.60;99.90;;;;;;4950694;28;20471;-66
2023/10/21 15:17:54;;;;;;;1.80;1.20;;;16.40;99.90;;;;;;4948073;28;20468;-66
2023/10/21 15:20:22;;;;;;;0.90;0.70;;;16.30;99.90;;;;;;4951152;28;20899;-66
2023/10/21 15:22:52;;;;;;;1.67;0.80;;;16.30;99.90;;;;;;4949981;28;20475;-66
2023/10/21 15:25:20;;;;;;;1.10;0.83;;;16.20;99.90;;;;;;4949851;28;20549;-66
2023/10/21 15:27:51;;;;;;;1.10;0.80;;;16.10;99.90;;;;;;4947307;28;20464;-66
2023/10/21 15:30:19;;;;;;;0.90;0.80;;;16.10;99.90;;;;;;4947129;28;20466;-66
2023/10/21 15:32:47;;;;;;;1.10;0.90;;;16.00;99.90;;;;;;4950312;28;20977;-67
2023/10/21 15:35:15;;;;;;;1.57;0.80;;;16.00;99.90;;;;;;4949109;28;20520;-67
2023/10/21 15:37:43;;;;;;;1.00;0.80;;;16.00;99.90;;;;;;4947573;28;20468;-66
2023/10/21 15:40:13;;;;;;;1.10;1.00;;;15.90;99.90;;;;;;4945801;28;20561;-66
2023/10/21 15:42:41;;;;;;;1.77;0.93;;;15.90;99.90;;;;;;4951259;28;20896;-66
2023/10/21 15:45:09;;;;;;;1.90;1.37;;;15.80;99.90;;;;;;4951482;28;20491;-66
2023/10/21 15:47:36;;;;;;;1.47;0.90;;;15.70;99.90;;;;;;4945303;28;20467;-66
2023/10/21 15:50:04;;;;;;;2.30;1.20;;;15.70;99.90;;;;;;4945148;28;21065;-66
2023/10/21 15:52:30;;;;;;;1.03;0.80;;;15.70;99.90;;;;;;4948581;28;20484;-66
2023/10/21 15:54:58;;;;;;;1.20;0.80;;;15.70;99.90;;;;;;4944529;28;21658;-66
2023/10/21 15:57:26;;;;;;;1.00;0.90;;;15.60;99.90;;;;;;4944972;28;20508;-66
2023/10/21 15:59:54;;;;;;;1.00;0.90;;;15.50;99.90;;;;;;4949643;28;20472;-66
2023/10/21 16:02:21;;;;;;;1.40;0.90;;;15.50;99.90;;;;;;4950605;28;20492;-66
2023/10/21 16:04:49;;;;;;;2.30;1.13;;;15.40;99.90;;;;;;4944211;28;20483;-66
2023/10/21 16:07:16;;;;;;;1.67;0.90;;;15.40;99.90;;;;;;4948307;28;20502;-66
2023/10/21 16:09:43;;;;;;;1.40;1.20;;;15.30;99.90;;;;;;4947554;28;20464;-67
2023/10/21 16:12:09;;;;;;;1.30;1.20;;;15.20;99.90;;;;;;4945217;28;20484;-67
2023/10/21 16:14:37;;;;;;;1.53;1.00;;;15.20;99.90;;;;;;4951272;28;20973;-66
2023/10/21 16:17:04;;;;;;;1.17;0.90;;;15.10;99.90;;;;;;4941823;28;20655;-66
2023/10/21 16:19:31;;;;;;;3.20;1.10;;;15.00;99.90;;;;;;4948144;28;20471;-66
2023/10/21 16:21:58;;;;;;;1.50;0.90;;;15.00;99.90;;;;;;4945070;28;20484;-66
2023/10/21 16:24:25;;;;;;;1.07;0.87;;;14.80;99.90;;;;;;4950759;28;21071;-66
2023/10/21 16:26:52;;;;;;;3.33;1.00;;;14.80;99.90;;;;;;4949444;28;20463;-66
2023/10/21 16:29:19;;;;;;;1.40;1.00;;;14.60;99.90;;;;;;4953662;28;20460;-66
2023/10/21 16:31:47;;;;;;;1.10;1.00;;;14.60;99.90;;;;;;4954105;28;21028;-66
2023/10/21 16:34:14;;;;;;;1.83;1.20;;;14.50;99.90;;;;;;4954148;28;20464;-66
2023/10/21 16:36:41;;;;;;;1.37;1.17;;;14.40;99.90;;;;;;4954548;28;20460;-66
2023/10/21 16:39:09;;;;;;;1.50;1.40;;;14.30;99.90;;;;;;4954645;28;20953;-66
2023/10/21 16:41:36;;;;;;;1.83;1.33;;;14.20;99.90;;;;;;4954303;28;20519;-66
2023/10/21 16:44:03;;;;;;;1.27;1.17;;;14.20;99.90;;;;;;4953723;28;20479;-66
2023/10/21 16:46:29;;;;;;;1.67;1.20;;;14.10;99.90;;;;;;4953375;28;20850;-66
2023/10/21 16:48:58;;;;;;;1.87;1.20;;;13.90;99.90;;;;;;4953922;28;20471;-66
2023/10/21 16:51:25;;;;;;;1.83;1.20;;;13.90;99.90;;;;;;4952378;28;20858;-66
2023/10/21 16:53:52;;;;;;;2.77;1.67;;;13.80;99.90;;;;;;4945362;28;20844;-66
2023/10/21 16:56:19;;;;;;;1.67;1.43;;;13.70;99.90;;;;;;4950729;28;20463;-66
2023/10/21 16:58:46;;;;;;;2.00;1.27;;;13.60;99.90;;;;;;4949806;28;20472;-66
2023/10/21 17:01:13;;;;;;;4.40;1.17;;;13.60;99.90;;;;;;4951076;28;20543;-66
2023/10/21 17:03:40;;;;;;;1.97;1.77;;;13.50;99.90;;;;;;4949965;28;20471;-66